Time;durP1;ratioP1;P1;durP2;ratioP2;P2;SDS_P1;SDS_P2;PMS_P1;PMS_P2;Temp;Humidity;BMP_temperature;BMP_pressure;BME280_temperature;BME280_humidity;BME280_pressure;Samples;Min_cycle;Max_cycle;Signal;HPM_P1;HPM_P2
2023/03/18 00:01:51;;;;;;;;;;;11.70;75.50;;;;;;5099707;28;19928;-72
2023/03/18 00:04:18;;;;;;;;;;;11.70;75.50;;;;;;5097646;28;20005;-74
2023/03/18 00:06:46;;;;;;;;;;;11.60;75.20;;;;;;5094772;28;20053;-74
2023/03/18 00:09:13;;;;;;;;;;;11.70;75.20;;;;;;5094506;28;19927;-72
2023/03/18 00:11:40;;;;;;;;;;;11.70;75.10;;;;;;5102012;28;19931;-73
2023/03/18 00:14:08;;;;;;;;;;;11.60;75.00;;;;;;5096613;28;19931;-73
2023/03/18 00:16:35;;;;;;;;;;;11.60;75.10;;;;;;5095978;28;20025;-74
2023/03/18 00:19:02;;;;;;;;;;;11.60;75.20;;;;;;5099824;27;20358;-73
2023/03/18 00:21:29;;;;;;;;;;;11.60;74.80;;;;;;5100885;27;19931;-72
2023/03/18 00:23:57;;;;;;;;;;;11.60;74.70;;;;;;5098691;28;19935;-72
2023/03/18 00:26:24;;;;;;;;;;;11.60;74.70;;;;;;5100045;27;19928;-71
2023/03/18 00:28:51;;;;;;;;;;;11.60;74.90;;;;;;5097377;28;20294;-74
2023/03/18 00:31:17;;;;;;;;;;;11.60;75.00;;;;;;5094383;28;19940;-73
2023/03/18 00:33:44;;;;;;;;;;;11.60;74.90;;;;;;5099115;28;19938;-74
2023/03/18 00:36:12;;;;;;;;;;;11.60;75.00;;;;;;5103592;28;19928;-74
2023/03/18 00:38:39;;;;;;;;;;;11.60;75.00;;;;;;5095882;27;20026;-71
2023/03/18 00:41:10;;;;;;;;;;;11.60;74.80;;;;;;5100473;28;19927;-72
2023/03/18 00:43:44;;;;;;;;;;;11.60;74.90;;;;;;5093557;27;19928;-74
2023/03/18 00:46:12;;;;;;;;;;;11.50;75.00;;;;;;5101560;27;20366;-72
2023/03/18 00:48:38;;;;;;;;;;;11.60;75.00;;;;;;5094910;27;19928;-72
2023/03/18 00:51:05;;;;;;;;;;;11.50;74.90;;;;;;5097601;28;19927;-74
2023/03/18 00:53:32;;;;;;;;;;;11.50;74.70;;;;;;5095674;28;20010;-72
2023/03/18 00:55:59;;;;;;;;;;;11.50;74.80;;;;;;5094411;28;19950;-72
2023/03/18 00:58:27;;;;;;;;;;;11.50;74.60;;;;;;5091564;28;19931;-72
2023/03/18 01:00:53;;;;;;;;;;;11.50;74.70;;;;;;5101532;28;20000;-72
2023/03/18 01:03:24;;;;;;;;;;;11.50;74.50;;;;;;5099509;27;19935;-74
2023/03/18 01:05:50;;;;;;;;;;;11.50;74.60;;;;;;5090786;28;19932;-73
2023/03/18 01:08:17;;;;;;;;;;;11.50;74.80;;;;;;5097577;28;20305;-74
2023/03/18 01:10:44;;;;;;;;;;;11.50;74.70;;;;;;5093060;28;20025;-74
2023/03/18 01:13:11;;;;;;;;;;;11.50;74.30;;;;;;5100453;28;19932;-72
2023/03/18 01:15:39;;;;;;;;;;;11.40;73.90;;;;;;5103129;28;20361;-72
2023/03/18 01:18:06;;;;;;;;;;;11.40;73.50;;;;;;5099724;28;19935;-72
2023/03/18 01:20:32;;;;;;;;;;;11.50;73.30;;;;;;5097031;28;20397;-73
2023/03/18 01:22:59;;;;;;;;;;;11.40;73.60;;;;;;5089643;28;19928;-72
2023/03/18 01:25:26;;;;;;;;;;;11.40;73.60;;;;;;5091816;28;19924;-72
2023/03/18 01:27:52;;;;;;;;;;;11.40;73.60;;;;;;5093720;27;19935;-71
2023/03/18 01:30:19;;;;;;;;;;;11.40;73.30;;;;;;5100819;27;19927;-74
2023/03/18 01:32:47;;;;;;;;;;;11.40;72.90;;;;;;5096003;28;19931;-74
2023/03/18 01:35:14;;;;;;;;;;;11.50;72.70;;;;;;5096136;28;19939;-74
2023/03/18 01:37:40;;;;;;;;;;;11.40;72.60;;;;;;5097276;28;20678;-72
2023/03/18 01:40:09;;;;;;;;;;;11.40;72.60;;;;;;5096601;28;20043;-73
2023/03/18 01:42:35;;;;;;;;;;;11.40;72.50;;;;;;5095790;28;20495;-73
2023/03/18 01:45:15;;;;;;;;;;;11.40;72.50;;;;;;5092743;28;19928;-73
2023/03/18 01:47:43;;;;;;;;;;;11.40;72.00;;;;;;5097644;28;20351;-73
2023/03/18 01:50:12;;;;;;;;;;;11.40;71.80;;;;;;5098506;28;20345;-72
2023/03/18 01:52:38;;;;;;;;;;;11.40;71.80;;;;;;5092322;28;19931;-73
2023/03/18 01:55:06;;;;;;;;;;;11.40;71.90;;;;;;5101214;28;19978;-73
2023/03/18 01:57:34;;;;;;;;;;;11.40;72.10;;;;;;5093602;28;19927;-73
2023/03/18 02:00:03;;;;;;;;;;;11.40;72.30;;;;;;5093682;28;19946;-72
2023/03/18 02:02:30;;;;;;;;;;;11.40;72.20;;;;;;5092296;28;19943;-72
2023/03/18 02:04:58;;;;;;;;;;;11.40;72.10;;;;;;5093984;28;19924;-72
2023/03/18 02:07:28;;;;;;;;;;;11.40;72.00;;;;;;5096089;28;19928;-71
2023/03/18 02:09:56;;;;;;;;;;;11.30;72.10;;;;;;5089895;28;19930;-73
2023/03/18 02:12:24;;;;;;;;;;;11.30;72.10;;;;;;5094934;28;19928;-72
2023/03/18 02:14:51;;;;;;;;;;;11.30;72.10;;;;;;5099458;27;20066;-72
2023/03/18 02:17:20;;;;;;;;;;;11.30;72.20;;;;;;5091672;28;19928;-72
2023/03/18 02:19:50;;;;;;;;;;;11.30;72.30;;;;;;5096725;28;19927;-73
2023/03/18 02:22:22;;;;;;;;;;;11.30;72.30;;;;;;5102106;28;20620;-74
2023/03/18 02:25:04;;;;;;;;;;;11.30;72.50;;;;;;5096989;27;20472;-72
2023/03/18 02:27:33;;;;;;;;;;;11.30;72.40;;;;;;5101287;28;19928;-71
2023/03/18 02:30:02;;;;;;;;;;;11.30;72.60;;;;;;5104205;28;19928;-72
2023/03/18 02:32:30;;;;;;;;;;;11.30;72.60;;;;;;5097515;27;20027;-72
2023/03/18 02:34:59;;;;;;;;;;;11.30;72.70;;;;;;5103853;27;20000;-71
2023/03/18 02:37:25;;;;;;;;;;;11.30;72.90;;;;;;5103831;27;19927;-72
2023/03/18 02:39:52;;;;;;;;;;;11.20;73.00;;;;;;5101813;27;20358;-72
2023/03/18 02:42:27;;;;;;;;;;;11.20;73.10;;;;;;5095747;27;20324;-72
2023/03/18 02:44:55;;;;;;;;;;;11.20;73.30;;;;;;5097586;27;19928;-74
2023/03/18 02:47:24;;;;;;;;;;;11.20;73.30;;;;;;5102124;28;19939;-73
2023/03/18 02:49:51;;;;;;;;;;;11.20;73.50;;;;;;5099313;27;19924;-73
2023/03/18 02:52:17;;;;;;;;;;;11.20;73.70;;;;;;5102297;28;20574;-74
2023/03/18 02:54:44;;;;;;;;;;;11.20;73.80;;;;;;5101188;28;19928;-72
2023/03/18 02:57:10;;;;;;;;;;;11.10;74.00;;;;;;5104961;27;19928;-73
2023/03/18 02:59:37;;;;;;;;;;;11.10;74.20;;;;;;5096833;28;19981;-73
2023/03/18 03:02:05;;;;;;;;;;;11.10;74.40;;;;;;5100957;27;19981;-74
2023/03/18 03:04:31;;;;;;;;;;;11.10;74.50;;;;;;5101273;28;20036;-73
2023/03/18 03:07:00;;;;;;;;;;;11.10;74.70;;;;;;5097959;27;19939;-72
2023/03/18 03:09:27;;;;;;;;;;;11.10;74.80;;;;;;5100231;27;20447;-72
2023/03/18 03:11:54;;;;;;;;;;;11.10;74.90;;;;;;5103051;28;19928;-72
2023/03/18 03:14:21;;;;;;;;;;;11.00;75.00;;;;;;5100442;27;20122;-73
2023/03/18 03:16:48;;;;;;;;;;;11.00;75.10;;;;;;5099112;28;19928;-74
2023/03/18 03:19:16;;;;;;;;;;;11.00;75.20;;;;;;5098906;28;19931;-73
2023/03/18 03:21:42;;;;;;;;;;;10.90;75.30;;;;;;5101464;27;20343;-73
2023/03/18 03:24:09;;;;;;;;;;;10.90;75.60;;;;;;5100130;28;19932;-74
2023/03/18 03:26:36;;;;;;;;;;;10.90;75.80;;;;;;5095898;27;19931;-74
2023/03/18 03:29:03;;;;;;;;;;;10.90;75.90;;;;;;5102281;28;20000;-74
2023/03/18 03:31:29;;;;;;;;;;;10.80;76.10;;;;;;5091646;27;19986;-72
2023/03/18 03:33:56;;;;;;;;;;;10.90;76.30;;;;;;5102675;28;19931;-73
2023/03/18 03:36:24;;;;;;;;;;;10.80;76.40;;;;;;5099503;28;19928;-72
2023/03/18 03:38:50;;;;;;;;;;;10.80;76.60;;;;;;5098820;28;19982;-74
2023/03/18 03:41:17;;;;;;;;;;;10.70;76.60;;;;;;5093548;28;19935;-74
2023/03/18 03:43:44;;;;;;;;;;;10.80;76.80;;;;;;5090980;28;19935;-74
2023/03/18 03:46:11;;;;;;;;;;;10.80;77.00;;;;;;5099675;28;19940;-71
2023/03/18 03:48:38;;;;;;;;;;;10.70;77.10;;;;;;5094515;28;19936;-73
2023/03/18 03:51:05;;;;;;;;;;;10.70;77.30;;;;;;5102786;28;19928;-73
2023/03/18 03:53:34;;;;;;;;;;;10.70;77.40;;;;;;5101728;27;19974;-73
2023/03/18 03:56:01;;;;;;;;;;;10.70;77.60;;;;;;5098411;28;19927;-73
2023/03/18 03:58:28;;;;;;;;;;;10.60;77.70;;;;;;5095756;27;19928;-72
2023/03/18 04:00:55;;;;;;;;;;;10.60;77.80;;;;;;5102117;28;20368;-72
2023/03/18 04:03:22;;;;;;;;;;;10.60;77.90;;;;;;5102243;28;19934;-72
2023/03/18 04:05:49;;;;;;;;;;;10.60;78.00;;;;;;5102856;28;19947;-73
2023/03/18 04:08:15;;;;;;;;;;;10.50;78.10;;;;;;5103051;28;20042;-74
2023/03/18 04:10:43;;;;;;;;;;;10.50;78.20;;;;;;5097273;27;19932;-72
2023/03/18 04:13:10;;;;;;;;;;;10.50;78.30;;;;;;5102304;28;19931;-72
2023/03/18 04:15:36;;;;;;;;;;;10.50;78.40;;;;;;5104856;28;19935;-73
2023/03/18 04:18:05;;;;;;;;;;;10.50;78.60;;;;;;5101422;27;19927;-73
2023/03/18 04:20:33;;;;;;;;;;;10.40;78.50;;;;;;5098817;28;19932;-73
2023/03/18 04:22:59;;;;;;;;;;;10.40;78.60;;;;;;5101900;28;20022;-71
2023/03/18 04:25:26;;;;;;;;;;;10.40;78.70;;;;;;5104193;27;19927;-72
2023/03/18 04:27:54;;;;;;;;;;;10.40;78.80;;;;;;5101821;28;19932;-71
2023/03/18 04:30:22;;;;;;;;;;;10.40;78.90;;;;;;5102110;28;19998;-73
2023/03/18 04:32:49;;;;;;;;;;;10.40;79.00;;;;;;5100769;28;19927;-74
2023/03/18 04:35:16;;;;;;;;;;;10.30;78.90;;;;;;5100726;28;19931;-72
2023/03/18 04:37:43;;;;;;;;;;;10.40;79.00;;;;;;5099712;28;20511;-71
2023/03/18 04:40:10;;;;;;;;;;;10.30;79.00;;;;;;5097803;28;19928;-72
2023/03/18 04:42:37;;;;;;;;;;;10.30;79.10;;;;;;5095176;27;20372;-73
2023/03/18 04:45:06;;;;;;;;;;;10.20;79.10;;;;;;5104153;27;20493;-72
2023/03/18 04:47:34;;;;;;;;;;;10.20;79.20;;;;;;5101291;27;19984;-72
2023/03/18 04:50:01;;;;;;;;;;;10.20;79.30;;;;;;5100919;27;19931;-74
2023/03/18 04:52:27;;;;;;;;;;;10.10;79.40;;;;;;5089731;28;19960;-72
2023/03/18 04:54:54;;;;;;;;;;;10.20;79.50;;;;;;5096076;28;19927;-71
2023/03/18 04:57:21;;;;;;;;;;;10.10;79.50;;;;;;5096895;27;19927;-74
2023/03/18 04:59:47;;;;;;;;;;;10.10;79.70;;;;;;5092007;28;20023;-72
2023/03/18 05:02:15;;;;;;;;;;;10.10;79.80;;;;;;5097844;27;19928;-73
2023/03/18 05:04:42;;;;;;;;;;;10.10;79.90;;;;;;5092604;28;20485;-74
2023/03/18 05:07:10;;;;;;;;;;;10.10;80.00;;;;;;5095407;28;19928;-74
2023/03/18 05:09:36;;;;;;;;;;;10.10;80.10;;;;;;5098178;28;19935;-73
2023/03/18 05:12:03;;;;;;;;;;;10.00;80.00;;;;;;5096011;27;19932;-74
2023/03/18 05:14:30;;;;;;;;;;;10.10;80.10;;;;;;5095086;27;20026;-72
2023/03/18 05:16:56;;;;;;;;;;;10.10;80.20;;;;;;5100191;27;20515;-72
2023/03/18 05:19:24;;;;;;;;;;;10.00;80.30;;;;;;5097944;27;19932;-72
2023/03/18 05:21:51;;;;;;;;;;;10.00;80.40;;;;;;5104353;27;20476;-72
2023/03/18 05:24:17;;;;;;;;;;;10.00;80.50;;;;;;5098553;28;19997;-72
2023/03/18 05:26:44;;;;;;;;;;;10.00;80.60;;;;;;5099488;27;19935;-73
2023/03/18 05:29:11;;;;;;;;;;;9.90;80.60;;;;;;5105202;27;19928;-71
2023/03/18 05:31:37;;;;;;;;;;;9.90;80.70;;;;;;5098841;27;20511;-74
2023/03/18 05:34:05;;;;;;;;;;;9.90;80.70;;;;;;5099467;28;19928;-73
2023/03/18 05:36:33;;;;;;;;;;;9.90;80.70;;;;;;5095683;28;19955;-73
2023/03/18 05:39:00;;;;;;;;;;;9.90;80.80;;;;;;5099374;27;20066;-72
2023/03/18 05:41:26;;;;;;;;;;;9.90;80.80;;;;;;5092960;28;19955;-72
2023/03/18 05:43:53;;;;;;;;;;;9.90;80.90;;;;;;5092605;28;19943;-72
2023/03/18 05:46:19;;;;;;;;;;;9.90;81.10;;;;;;5094021;27;20359;-73
2023/03/18 05:48:46;;;;;;;;;;;9.90;81.10;;;;;;5092762;27;19927;-74
2023/03/18 05:51:13;;;;;;;;;;;9.90;81.10;;;;;;5100886;28;19961;-72
2023/03/18 05:53:41;;;;;;;;;;;9.90;81.00;;;;;;5091608;28;19936;-72
2023/03/18 05:56:07;;;;;;;;;;;9.80;80.80;;;;;;5095695;28;20348;-73
2023/03/18 05:58:34;;;;;;;;;;;9.90;80.90;;;;;;5093263;28;20389;-71
2023/03/18 06:01:01;;;;;;;;;;;9.80;80.80;;;;;;5092218;28;20257;-71
2023/03/18 06:03:28;;;;;;;;;;;9.80;80.80;;;;;;5094407;28;20281;-71
2023/03/18 06:05:55;;;;;;;;;;;9.80;80.90;;;;;;5091080;28;19939;-71
2023/03/18 06:08:22;;;;;;;;;;;9.70;80.70;;;;;;5099120;28;20435;-72
2023/03/18 06:10:50;;;;;;;;;;;9.80;80.90;;;;;;5092957;28;19975;-73
2023/03/18 06:13:16;;;;;;;;;;;9.80;81.00;;;;;;5094669;28;19928;-73
2023/03/18 06:15:43;;;;;;;;;;;9.80;81.10;;;;;;5095304;27;19939;-74
2023/03/18 06:18:10;;;;;;;;;;;9.80;81.10;;;;;;5097440;28;19932;-72
2023/03/18 06:20:36;;;;;;;;;;;9.80;81.10;;;;;;5091208;28;19928;-74
2023/03/18 06:23:04;;;;;;;;;;;9.80;81.30;;;;;;5090442;28;19996;-72
2023/03/18 06:25:30;;;;;;;;;;;9.70;81.20;;;;;;5090374;28;20395;-71
2023/03/18 06:27:58;;;;;;;;;;;9.70;81.30;;;;;;5057711;23;19937;-75
2023/03/18 06:30:25;;;;;;;;;;;9.70;81.30;;;;;;5018972;28;19951;-72
2023/03/18 06:32:52;;;;;;;;;;;9.70;81.40;;;;;;5016659;28;20658;-72
2023/03/18 06:35:18;;;;;;;;;;;9.70;81.50;;;;;;5015415;28;19975;-74
2023/03/18 06:37:45;;;;;;;;;;;9.70;81.60;;;;;;5009503;28;20339;-72
2023/03/18 06:40:12;;;;;;;;;;;9.70;81.60;;;;;;5000735;28;20654;-72
2023/03/18 06:42:39;;;;;;;;;;;9.60;81.60;;;;;;5001465;28;19972;-74
2023/03/18 06:45:08;;;;;;;;;;;9.60;81.60;;;;;;5002852;28;19980;-72
2023/03/18 06:47:35;;;;;;;;;;;9.60;81.60;;;;;;5003303;28;19930;-73
2023/03/18 06:50:02;;;;;;;;;;;9.70;81.70;;;;;;5002081;28;19929;-73
2023/03/18 06:52:28;;;;;;;;;;;9.60;81.60;;;;;;4997630;28;19984;-75
2023/03/18 06:54:55;;;;;;;;;;;9.60;81.60;;;;;;5001566;28;19976;-74
2023/03/18 06:57:21;;;;;;;;;;;9.60;81.70;;;;;;5004400;28;19979;-74
2023/03/18 06:59:48;;;;;;;;;;;9.60;81.70;;;;;;5006037;28;19929;-75
2023/03/18 07:02:16;;;;;;;;;;;9.60;81.70;;;;;;5002399;28;19937;-72
2023/03/18 07:04:43;;;;;;;;;;;9.60;81.80;;;;;;5006830;28;21615;-73
2023/03/18 07:07:09;;;;;;;;;;;9.60;81.90;;;;;;5007442;28;19930;-72
2023/03/18 07:09:36;;;;;;;;;;;9.60;82.00;;;;;;5003426;28;19976;-74
2023/03/18 07:12:02;;;;;;;;;;;9.60;82.10;;;;;;5004860;28;20415;-74
2023/03/18 07:14:29;;;;;;;;;;;9.60;82.10;;;;;;5006688;28;19933;-75
2023/03/18 07:16:56;;;;;;;;;;;9.60;82.10;;;;;;5003958;28;19940;-74
2023/03/18 07:19:24;;;;;;;;;;;9.60;82.10;;;;;;5006038;28;19933;-74
2023/03/18 07:21:51;;;;;;;;;;;9.60;82.10;;;;;;5008863;28;19952;-75
2023/03/18 07:24:19;;;;;;;;;;;9.60;82.10;;;;;;5004217;28;19934;-75
2023/03/18 07:26:46;;;;;;;;;;;9.60;82.20;;;;;;5005060;28;20416;-74
2023/03/18 07:29:12;;;;;;;;;;;9.60;82.20;;;;;;5006615;28;19929;-73
2023/03/18 07:31:39;;;;;;;;;;;9.60;82.10;;;;;;5008484;28;19929;-73
2023/03/18 07:34:06;;;;;;;;;;;9.60;82.20;;;;;;5005667;28;20392;-73
2023/03/18 07:36:35;;;;;;;;;;;9.60;82.20;;;;;;5006474;28;19930;-74
2023/03/18 07:39:02;;;;;;;;;;;9.60;82.20;;;;;;5003399;28;19929;-75
2023/03/18 07:41:29;;;;;;;;;;;9.60;82.20;;;;;;5010583;28;20371;-72
2023/03/18 07:43:56;;;;;;;;;;;9.60;82.20;;;;;;5004177;28;19937;-72
2023/03/18 07:46:22;;;;;;;;;;;9.60;82.20;;;;;;5007272;28;19930;-74
2023/03/18 07:48:49;;;;;;;;;;;9.50;82.10;;;;;;5000979;28;19930;-74
2023/03/18 07:51:15;;;;;;;;;;;9.50;82.20;;;;;;4998889;28;19972;-73
2023/03/18 07:53:44;;;;;;;;;;;9.50;82.20;;;;;;5006648;28;20403;-74
2023/03/18 07:56:11;;;;;;;;;;;9.50;82.10;;;;;;5004370;28;19929;-73
2023/03/18 07:58:38;;;;;;;;;;;9.60;82.20;;;;;;4998768;28;19933;-72
2023/03/18 08:01:05;;;;;;;;;;;9.60;82.20;;;;;;5002397;28;19929;-72
2023/03/18 08:03:32;;;;;;;;;;;9.60;82.10;;;;;;5004542;28;19978;-75
2023/03/18 08:05:59;;;;;;;;;;;9.60;82.00;;;;;;5004770;28;20044;-73
2023/03/18 08:08:26;;;;;;;;;;;9.60;82.00;;;;;;5002671;28;19964;-73
2023/03/18 08:10:58;;;;;;;;;;;9.60;81.70;;;;;;4997624;28;20075;-73
2023/03/18 08:13:25;;;;;;;;;;;9.70;81.60;;;;;;5005921;28;20407;-73
2023/03/18 08:15:52;;;;;;;;;;;9.70;81.50;;;;;;5004421;28;19933;-74
2023/03/18 08:18:19;;;;;;;;;;;9.80;81.40;;;;;;5003545;28;20408;-74
2023/03/18 08:20:47;;;;;;;;;;;9.80;81.50;;;;;;5008859;28;20004;-73
2023/03/18 08:23:14;;;;;;;;;;;9.80;81.60;;;;;;5006575;28;19936;-73
2023/03/18 08:25:40;;;;;;;;;;;9.90;81.70;;;;;;4998456;28;19995;-72
2023/03/18 08:28:09;;;;;;;;;;;9.90;81.50;;;;;;5008247;28;19929;-74
2023/03/18 08:30:38;;;;;;;;;;;9.90;81.50;;;;;;5005591;28;20438;-72
2023/03/18 08:33:04;;;;;;;;;;;10.00;82.40;;;;;;5005059;28;20009;-72
2023/03/18 08:35:31;;;;;;;;;;;10.10;81.60;;;;;;5005468;28;19975;-73
2023/03/18 08:37:57;;;;;;;;;;;10.10;81.60;;;;;;5011789;28;19968;-74
2023/03/18 08:40:24;;;;;;;;;;;10.10;81.30;;;;;;5003037;28;19983;-73
2023/03/18 08:42:52;;;;;;;;;;;10.20;81.00;;;;;;5005392;28;20031;-71
2023/03/18 08:45:19;;;;;;;;;;;10.20;80.60;;;;;;5006379;28;20024;-73
2023/03/18 08:47:46;;;;;;;;;;;10.20;80.20;;;;;;5008913;28;19929;-73
2023/03/18 08:50:13;;;;;;;;;;;10.30;79.80;;;;;;5005554;28;19933;-73
2023/03/18 08:52:40;;;;;;;;;;;10.40;79.40;;;;;;5008921;28;19934;-74
2023/03/18 08:55:07;;;;;;;;;;;10.40;79.00;;;;;;5004931;28;19984;-72
2023/03/18 08:57:33;;;;;;;;;;;10.40;78.10;;;;;;5005249;28;19980;-73
2023/03/18 09:00:00;;;;;;;;;;;10.50;77.60;;;;;;5004492;28;19936;-74
2023/03/18 09:02:28;;;;;;;;;;;10.60;77.60;;;;;;5005209;28;19935;-73
2023/03/18 09:04:55;;;;;;;;;;;10.60;77.20;;;;;;5001897;28;19940;-72
2023/03/18 09:07:21;;;;;;;;;;;10.60;76.80;;;;;;5008617;28;19929;-73
2023/03/18 09:09:48;;;;;;;;;;;10.70;76.40;;;;;;5006082;28;19937;-73
2023/03/18 09:12:14;;;;;;;;;;;10.70;76.40;;;;;;5005695;28;19929;-72
2023/03/18 09:14:42;;;;;;;;;;;10.70;76.40;;;;;;5004781;28;20465;-74
2023/03/18 09:17:09;;;;;;;;;;;10.80;76.30;;;;;;5003478;28;19929;-73
2023/03/18 09:19:37;;;;;;;;;;;10.80;76.20;;;;;;5005600;28;19929;-73
2023/03/18 09:22:03;;;;;;;;;;;10.80;76.10;;;;;;5004554;28;20358;-73
2023/03/18 09:24:30;;;;;;;;;;;10.90;76.00;;;;;;5003613;28;19941;-74
2023/03/18 09:26:58;;;;;;;;;;;10.90;75.90;;;;;;5006456;28;19937;-73
2023/03/18 09:29:26;;;;;;;;;;;10.90;75.70;;;;;;5006409;28;21571;-73
2023/03/18 09:31:53;;;;;;;;;;;11.00;75.60;;;;;;5001286;28;20048;-75
2023/03/18 09:34:19;;;;;;;;;;;11.00;75.50;;;;;;5007938;28;19929;-74
2023/03/18 09:36:49;;;;;;;;;;;11.00;75.20;;;;;;5015403;28;19926;-73
2023/03/18 09:39:16;;;;;;;;;;;11.10;75.10;;;;;;5008295;28;19934;-75
2023/03/18 09:41:46;;;;;;;;;;;11.10;74.90;;;;;;5003597;28;20533;-74
2023/03/18 09:44:16;;;;;;;;;;;11.20;74.60;;;;;;5010559;28;20032;-73
2023/03/18 09:46:49;;;;;;;;;;;11.30;74.40;;;;;;5010090;28;19980;-73
2023/03/18 09:49:25;;;;;;;;;;;11.40;74.30;;;;;;5003544;28;19930;-73
2023/03/18 09:51:57;;;;;;;;;;;11.40;74.10;;;;;;5005423;28;19929;-74
2023/03/18 09:54:29;;;;;;;;;;;11.50;74.10;;;;;;5000440;28;20020;-74
2023/03/18 09:56:56;;;;;;;;;;;11.60;74.10;;;;;;5005738;28;19940;-73
2023/03/18 09:59:24;;;;;;;;;;;11.60;73.60;;;;;;5000749;28;19929;-73
2023/03/18 10:01:53;;;;;;;;;;;11.70;73.30;;;;;;5003270;28;19956;-72
2023/03/18 10:04:21;;;;;;;;;;;11.80;73.30;;;;;;5005902;28;19930;-73
2023/03/18 10:06:48;;;;;;;;;;;11.90;72.50;;;;;;5002723;28;20052;-74
2023/03/18 10:09:20;;;;;;;;;;;11.90;73.40;;;;;;4999963;28;19937;-72
2023/03/18 10:11:48;;;;;;;;;;;12.00;72.50;;;;;;5001450;28;19980;-73
2023/03/18 10:14:19;;;;;;;;;;;12.00;72.30;;;;;;5008726;28;20634;-72
2023/03/18 10:16:52;;;;;;;;;;;12.10;72.10;;;;;;5000677;28;20525;-73
2023/03/18 10:19:19;;;;;;;;;;;12.10;71.30;;;;;;5004010;28;20020;-73
2023/03/18 10:21:49;;;;;;;;;;;12.20;70.80;;;;;;5005926;28;20020;-73
2023/03/18 10:24:25;;;;;;;;;;;12.20;70.40;;;;;;4999770;28;19930;-74
2023/03/18 10:26:56;;;;;;;;;;;12.30;70.40;;;;;;5002582;28;19936;-75
2023/03/18 10:29:31;;;;;;;;;;;12.30;70.80;;;;;;4997988;28;19937;-74
2023/03/18 10:32:07;;;;;;;;;;;12.30;70.80;;;;;;4999745;28;19929;-70
2023/03/18 10:34:39;;;;;;;;;;;12.30;70.80;;;;;;5005984;28;20469;-74
2023/03/18 10:37:10;;;;;;;;;;;12.40;70.80;;;;;;5003854;28;20596;-72
2023/03/18 10:39:39;;;;;;;;;;;12.40;70.30;;;;;;5007562;28;19961;-71
2023/03/18 10:42:12;;;;;;;;;;;12.50;70.50;;;;;;5011405;28;19933;-73
2023/03/18 10:44:40;;;;;;;;;;;12.50;70.40;;;;;;5009312;28;19933;-72
2023/03/18 10:47:12;;;;;;;;;;;12.60;70.30;;;;;;5006508;28;20626;-71
2023/03/18 10:49:40;;;;;;;;;;;12.60;69.50;;;;;;5006415;28;19929;-71
2023/03/18 10:52:10;;;;;;;;;;;12.70;69.40;;;;;;5004371;28;20315;-71
2023/03/18 10:54:40;;;;;;;;;;;12.80;69.40;;;;;;5007157;28;19940;-72
2023/03/18 10:57:06;;;;;;;;;;;12.80;69.00;;;;;;5008861;28;19929;-72
2023/03/18 10:59:34;;;;;;;;;;;12.80;68.60;;;;;;5003637;28;20007;-72
2023/03/18 11:02:03;;;;;;;;;;;13.00;69.10;;;;;;5008363;28;20029;-73
2023/03/18 11:04:31;;;;;;;;;;;13.10;69.20;;;;;;5006454;28;20080;-71
2023/03/18 11:07:00;;;;;;;;;;;13.10;69.00;;;;;;5003829;28;19976;-72
2023/03/18 11:09:29;;;;;;;;;;;13.20;68.70;;;;;;5008074;28;19938;-70
2023/03/18 11:11:58;;;;;;;;;;;13.20;68.30;;;;;;5008302;28;19924;-72
2023/03/18 11:14:28;;;;;;;;;;;13.40;68.10;;;;;;5007775;28;19933;-71
2023/03/18 11:16:56;;;;;;;;;;;13.50;67.90;;;;;;5005530;28;19969;-69
2023/03/18 11:19:28;;;;;;;;;;;13.50;66.80;;;;;;5007587;28;19929;-71
2023/03/18 11:22:03;;;;;;;;;;;13.60;67.30;;;;;;5007131;28;19937;-72
2023/03/18 11:24:38;;;;;;;;;;;13.70;66.10;;;;;;5002744;28;20462;-73
2023/03/18 11:27:22;;;;;;;;;;;13.70;66.30;;;;;;5006299;28;20396;-72
2023/03/18 11:29:50;;;;;;;;;;;13.80;65.80;;;;;;5006497;28;19964;-72
2023/03/18 11:32:23;;;;;;;;;;;13.80;65.40;;;;;;5005710;28;20004;-71
2023/03/18 11:34:53;;;;;;;;;;;13.90;65.80;;;;;;5007248;28;20052;-72
2023/03/18 11:37:20;;;;;;;;;;;14.00;66.00;;;;;;5002868;28;20011;-71
2023/03/18 11:39:47;;;;;;;;;;;14.10;65.90;;;;;;5009118;28;19937;-72
2023/03/18 11:42:20;;;;;;;;;;;14.20;65.60;;;;;;5011633;28;19935;-72
2023/03/18 11:44:48;;;;;;;;;;;14.30;65.40;;;;;;5007197;28;20303;-72
2023/03/18 11:47:19;;;;;;;;;;;14.40;64.30;;;;;;5003550;28;19935;-72
2023/03/18 11:49:46;;;;;;;;;;;14.40;64.20;;;;;;5008693;28;19930;-71
2023/03/18 11:52:30;;;;;;;;;;;14.50;64.30;;;;;;5006868;28;19930;-71
2023/03/18 11:55:04;;;;;;;;;;;14.60;63.50;;;;;;5003948;28;19960;-72
2023/03/18 11:57:37;;;;;;;;;;;14.70;63.20;;;;;;5003607;28;19933;-75
2023/03/18 12:00:16;;;;;;;;;;;14.70;61.90;;;;;;5009285;28;19932;-72
2023/03/18 12:02:50;;;;;;;;;;;14.80;62.20;;;;;;5013233;28;19938;-73
2023/03/18 12:05:28;;;;;;;;;;;14.80;62.30;;;;;;5006325;28;20027;-72
2023/03/18 12:08:02;;;;;;;;;;;14.80;62.50;;;;;;5005983;28;19926;-71
2023/03/18 12:10:32;;;;;;;;;;;14.80;62.50;;;;;;5003761;28;19933;-72
2023/03/18 12:13:06;;;;;;;;;;;14.90;63.00;;;;;;5000951;28;20332;-70
2023/03/18 12:15:41;;;;;;;;;;;14.90;62.00;;;;;;5003617;28;19935;-72
2023/03/18 12:18:15;;;;;;;;;;;14.80;60.30;;;;;;5006817;28;19944;-71
2023/03/18 12:20:48;;;;;;;;;;;14.80;60.20;;;;;;5009654;28;19980;-72
2023/03/18 12:23:29;;;;;;;;;;;14.80;61.60;;;;;;5007422;28;20011;-72
2023/03/18 12:26:02;;;;;;;;;;;14.80;62.00;;;;;;4998533;28;19929;-72
2023/03/18 12:28:35;;;;;;;;;;;14.80;61.30;;;;;;5005222;28;19929;-72
2023/03/18 12:31:06;;;;;;;;;;;14.80;61.10;;;;;;5005662;28;20019;-71
2023/03/18 12:33:47;;;;;;;;;;;14.80;61.20;;;;;;5004085;28;19933;-74
2023/03/18 12:36:17;;;;;;;;;;;14.80;61.40;;;;;;5004349;28;19932;-72
2023/03/18 12:39:05;;;;;;;;;;;14.90;60.70;;;;;;5005910;28;19937;-72
2023/03/18 12:41:38;;;;;;;;;;;14.90;61.20;;;;;;4998830;28;19929;-72
2023/03/18 12:44:18;;;;;;;;;;;14.90;61.30;;;;;;5010189;28;20016;-72
2023/03/18 12:46:47;;;;;;;;;;;14.90;61.60;;;;;;5004512;28;19973;-71
2023/03/18 12:49:18;;;;;;;;;;;15.00;61.60;;;;;;5002078;28;19930;-73
2023/03/18 12:51:48;;;;;;;;;;;15.10;61.60;;;;;;5009607;28;19929;-71
2023/03/18 12:54:19;;;;;;;;;;;15.10;61.60;;;;;;5005822;28;19929;-71
2023/03/18 12:56:49;;;;;;;;;;;15.10;61.80;;;;;;5006548;28;19929;-72
2023/03/18 12:59:21;;;;;;;;;;;15.20;61.60;;;;;;4998332;28;20386;-72
2023/03/18 13:01:52;;;;;;;;;;;15.30;61.40;;;;;;5001160;28;19934;-71
2023/03/18 13:04:21;;;;;;;;;;;15.30;61.40;;;;;;5010277;28;19933;-71
2023/03/18 13:06:51;;;;;;;;;;;15.30;60.20;;;;;;5008645;28;19981;-72
2023/03/18 13:09:22;;;;;;;;;;;15.40;59.60;;;;;;5002844;28;19932;-71
2023/03/18 13:11:57;;;;;;;;;;;15.40;60.20;;;;;;5002409;28;20718;-71
2023/03/18 13:14:27;;;;;;;;;;;15.50;59.90;;;;;;5003826;28;19929;-72
2023/03/18 13:16:55;;;;;;;;;;;15.50;60.10;;;;;;5002306;28;19936;-72
2023/03/18 13:19:22;;;;;;;;;;;15.60;60.20;;;;;;5007362;28;19929;-72
2023/03/18 13:21:52;;;;;;;;;;;15.60;60.00;;;;;;5003518;28;19936;-71
2023/03/18 13:24:40;;;;;;;;;;;15.70;58.60;;;;;;5001589;28;19932;-71
2023/03/18 13:27:31;;;;;;;;;;;15.70;59.00;;;;;;5000234;28;19929;-72
2023/03/18 13:30:03;;;;;;;;;;;15.70;57.80;;;;;;4991411;28;19932;-72
2023/03/18 13:32:38;;;;;;;;;;;15.70;57.80;;;;;;5004296;28;19991;-71
2023/03/18 13:35:14;;;;;;;;;;;15.70;58.40;;;;;;5009440;28;19929;-72
2023/03/18 13:37:51;;;;;;;;;;;15.70;58.70;;;;;;5006795;28;19929;-72
2023/03/18 13:40:26;;;;;;;;;;;15.70;58.80;;;;;;5007146;28;19969;-72
2023/03/18 13:42:56;;;;;;;;;;;15.80;59.20;;;;;;5003935;28;19941;-73
2023/03/18 13:45:27;;;;;;;;;;;15.80;59.40;;;;;;5000048;28;20470;-72
2023/03/18 13:47:58;;;;;;;;;;;15.80;59.50;;;;;;5010696;28;20015;-72
2023/03/18 13:50:32;;;;;;;;;;;15.80;59.50;;;;;;5007040;28;19930;-72
2023/03/18 13:53:00;;;;;;;;;;;15.90;59.50;;;;;;5004054;28;20675;-71
2023/03/18 13:55:29;;;;;;;;;;;16.00;59.20;;;;;;5002936;28;19929;-70
2023/03/18 13:57:57;;;;;;;;;;;16.10;59.00;;;;;;5005442;28;20277;-72
2023/03/18 14:00:29;;;;;;;;;;;16.10;58.90;;;;;;5004364;28;19933;-71
2023/03/18 14:03:06;;;;;;;;;;;16.10;58.80;;;;;;5011612;28;20395;-72
2023/03/18 14:05:34;;;;;;;;;;;16.20;58.40;;;;;;5003965;28;19952;-73
2023/03/18 14:08:04;;;;;;;;;;;16.20;58.40;;;;;;5003697;28;19973;-72
2023/03/18 14:10:31;;;;;;;;;;;16.30;58.50;;;;;;5000604;28;20020;-71
2023/03/18 14:13:18;;;;;;;;;;;16.40;58.40;;;;;;5003213;28;19929;-72
2023/03/18 14:15:46;;;;;;;;;;;16.40;58.50;;;;;;5012267;28;19994;-72
2023/03/18 14:18:31;;;;;;;;;;;16.40;58.10;;;;;;5008049;28;19933;-71
2023/03/18 14:21:03;;;;;;;;;;;16.50;58.20;;;;;;5005093;28;20339;-73
2023/03/18 14:23:41;;;;;;;;;;;16.50;58.30;;;;;;5007758;28;20408;-72
2023/03/18 14:26:18;;;;;;;;;;;16.60;58.40;;;;;;5003737;28;19930;-72
2023/03/18 14:28:46;;;;;;;;;;;16.60;58.40;;;;;;5006418;28;20323;-72